Time;durP1;ratioP1;P1;durP2;ratioP2;P2;SDS_P1;SDS_P2;PMS_P1;PMS_P2;Temp;Humidity;BMP_temperature;BMP_pressure;BME280_temperature;BME280_humidity;BME280_pressure;Samples;Min_cycle;Max_cycle;Signal;HPM_P1;HPM_P2
2022/09/28 00:02:06;;;;;;;8.30;4.45;;;;;;;18.73;100.00;99321.63;5013070;28;20026;-69
2022/09/28 00:04:32;;;;;;;8.07;4.13;;;;;;;18.48;100.00;99302.78;5013136;28;20036;-69
2022/09/28 00:06:58;;;;;;;6.78;5.00;;;;;;;18.12;100.00;99337.22;5013197;28;20025;-68
2022/09/28 00:09:25;;;;;;;9.35;4.88;;;;;;;18.03;100.00;99334.72;5013088;28;20034;-68
2022/09/28 00:11:52;;;;;;;11.27;5.35;;;;;;;18.03;100.00;99338.22;5027974;28;20430;-68
2022/09/28 00:14:18;;;;;;;8.88;4.97;;;;;;;18.04;100.00;99332.06;5013310;28;20069;-64
2022/09/28 00:16:44;;;;;;;10.90;4.63;;;;;;;18.01;100.00;99315.59;5013116;28;20030;-67
2022/09/28 00:19:11;;;;;;;10.52;4.88;;;;;;;18.14;100.00;99327.59;5008110;28;20102;-67
2022/09/28 00:21:39;;;;;;;6.97;4.45;;;;;;;18.16;100.00;99333.69;4997166;28;20062;-67
2022/09/28 00:24:15;;;;;;;9.68;5.00;;;;;;;18.08;100.00;99339.00;4992694;28;20465;-67
2022/09/28 00:26:43;;;;;;;7.60;4.38;;;;;;;18.15;100.00;99338.94;4992617;28;20608;-67
2022/09/28 00:29:32;;;;;;;9.23;4.78;;;;;;;18.19;99.90;99344.09;4992334;28;20481;-67
2022/09/28 00:32:01;;;;;;;10.07;4.63;;;;;;;18.22;99.61;99336.22;4991997;28;20030;-67
2022/09/28 00:34:36;;;;;;;8.43;4.57;;;;;;;18.24;98.92;99326.63;4991305;28;20057;-67
2022/09/28 00:37:03;;;;;;;7.07;4.10;;;;;;;18.14;99.67;99327.59;4992359;28;20034;-67
2022/09/28 00:39:33;;;;;;;9.55;4.53;;;;;;;18.12;99.52;99329.41;4992733;28;20531;-67
2022/09/28 00:41:58;;;;;;;7.95;4.38;;;;;;;18.11;100.00;99322.44;4992438;28;20030;-67
2022/09/28 00:44:38;;;;;;;6.38;3.92;;;;;;;18.10;99.79;99324.16;4992678;28;20491;-67
2022/09/28 00:47:13;;;;;;;8.68;4.30;;;;;;;18.00;99.26;99321.72;5007003;28;20047;-69
2022/09/28 00:49:44;;;;;;;8.07;4.50;;;;;;;17.96;98.73;99315.66;4996081;28;20037;-69
2022/09/28 00:52:14;;;;;;;8.25;4.63;;;;;;;17.90;98.55;99316.53;4992108;28;20026;-69
2022/09/28 00:54:42;;;;;;;9.40;4.82;;;;;;;17.89;99.12;99320.03;4991966;28;20399;-68
2022/09/28 00:57:08;;;;;;;9.13;4.70;;;;;;;17.92;99.46;99322.63;4991730;28;20076;-68
2022/09/28 00:59:34;;;;;;;8.05;4.70;;;;;;;17.98;99.97;99323.47;4991453;28;20033;-68
2022/09/28 01:02:00;;;;;;;7.50;4.68;;;;;;;17.95;98.69;99325.22;4991333;28;20485;-69
2022/09/28 01:04:26;;;;;;;7.80;4.53;;;;;;;17.64;98.94;99277.69;4991804;28;20023;-69
2022/09/28 01:06:52;;;;;;;11.23;4.63;;;;;;;17.77;100.00;99320.19;4991744;28;20033;-67
2022/09/28 01:09:19;;;;;;;8.60;4.80;;;;;;;17.61;100.00;99320.34;4991265;28;20062;-69
2022/09/28 01:11:45;;;;;;;7.60;4.45;;;;;;;17.54;100.00;99317.81;4991907;28;20026;-68
2022/09/28 01:14:14;;;;;;;6.65;4.35;;;;;;;17.40;100.00;99323.19;4991644;28;20022;-68
2022/09/28 01:17:03;;;;;;;7.22;4.80;;;;;;;17.49;100.00;99322.22;4991457;28;20030;-68
2022/09/28 01:19:39;;;;;;;7.32;4.57;;;;;;;17.55;100.00;99324.78;4994027;28;20116;-68
2022/09/28 01:22:18;;;;;;;6.60;4.70;;;;;;;17.54;100.00;99323.03;4993570;28;20088;-68
2022/09/28 01:24:55;;;;;;;9.07;4.40;;;;;;;17.63;100.00;99328.16;4995405;28;20026;-69
2022/09/28 01:27:35;;;;;;;7.18;4.53;;;;;;;17.66;100.00;99319.41;4991245;28;20617;-67
2022/09/28 01:30:06;;;;;;;12.40;4.85;;;;;;;17.63;100.00;99317.72;4991119;28;20018;-69
2022/09/28 01:32:45;;;;;;;7.75;4.53;;;;;;;17.76;98.81;99323.69;4991084;28;20034;-68
2022/09/28 01:35:17;;;;;;;8.18;4.63;;;;;;;17.56;97.62;99290.81;4991135;28;20049;-69
2022/09/28 01:37:50;;;;;;;8.70;4.45;;;;;;;17.78;97.90;99330.63;4991249;28;20022;-68
2022/09/28 01:40:18;;;;;;;5.78;4.40;;;;;;;17.78;99.17;99327.13;4993464;28;20022;-68
2022/09/28 01:42:46;;;;;;;7.47;4.32;;;;;;;17.77;98.51;99343.69;4993990;28;20079;-67
2022/09/28 01:45:22;;;;;;;9.00;4.57;;;;;;;17.19;98.22;99272.06;4995094;28;20031;-67
2022/09/28 01:47:49;;;;;;;7.07;4.40;;;;;;;17.61;97.87;99340.38;4990919;28;20050;-67
2022/09/28 01:50:19;;;;;;;7.65;4.10;;;;;;;17.69;96.70;99333.31;4990824;28;20042;-68
2022/09/28 01:52:58;;;;;;;9.43;4.57;;;;;;;17.59;95.81;99334.28;4990557;28;20500;-67
2022/09/28 01:55:32;;;;;;;7.85;4.00;;;;;;;17.55;95.14;99341.28;4994922;28;20037;-67
2022/09/28 01:58:22;;;;;;;6.40;4.35;;;;;;;17.50;94.79;99337.00;4997552;28;20026;-68
2022/09/28 02:00:55;;;;;;;5.18;3.90;;;;;;;17.48;95.36;99344.81;4992625;28;20148;-67
2022/09/28 02:03:33;;;;;;;7.03;4.07;;;;;;;17.51;96.16;99338.72;4990890;28;20026;-68
2022/09/28 02:06:07;;;;;;;9.10;3.78;;;;;;;17.45;96.25;99347.47;4990717;28;20022;-68
2022/09/28 02:08:39;;;;;;;7.90;4.28;;;;;;;17.46;96.49;99337.03;4990584;28;20026;-69
2022/09/28 02:11:11;;;;;;;6.75;4.40;;;;;;;17.46;95.55;99341.38;4990505;28;20026;-68
2022/09/28 02:13:53;;;;;;;10.07;4.60;;;;;;;17.45;94.10;99348.31;4996566;28;20033;-68
2022/09/28 02:16:30;;;;;;;7.25;4.65;;;;;;;17.40;95.98;99347.50;4992868;28;20018;-68
2022/09/28 02:18:55;;;;;;;7.53;4.80;;;;;;;17.39;96.80;99345.78;4990165;28;20040;-69
2022/09/28 02:21:46;;;;;;;8.90;5.28;;;;;;;17.25;97.29;99351.13;4990535;28;20109;-68
2022/09/28 02:24:23;;;;;;;8.70;5.15;;;;;;;17.19;97.91;99353.78;4993583;28;20027;-68
2022/09/28 02:26:50;;;;;;;9.32;5.45;;;;;;;17.23;98.14;99338.97;4994770;28;20029;-69
2022/09/28 02:29:16;;;;;;;8.10;4.90;;;;;;;17.08;97.86;99306.91;4992468;28;20061;-66
2022/09/28 02:31:42;;;;;;;7.53;4.93;;;;;;;17.13;96.03;99326.03;5007762;28;20396;-67
2022/09/28 02:34:08;;;;;;;8.02;5.63;;;;;;;17.26;97.00;99339.81;5011413;28;20488;-65
2022/09/28 02:36:34;;;;;;;7.05;4.95;;;;;;;17.21;98.34;99346.81;5010650;28;20520;-67
2022/09/28 02:39:01;;;;;;;8.55;4.93;;;;;;;17.00;98.27;99305.25;5010838;28;20164;-66
2022/09/28 02:41:43;;;;;;;8.07;5.40;;;;;;;17.26;99.69;99341.56;5010491;28;20026;-67
2022/09/28 02:44:14;;;;;;;10.63;5.60;;;;;;;17.29;98.00;99349.34;5010605;28;20026;-66
2022/09/28 02:47:02;;;;;;;7.60;5.32;;;;;;;17.24;98.23;99346.78;5010786;28;20052;-67
2022/09/28 02:49:57;;;;;;;8.00;5.10;;;;;;;17.27;99.60;99340.66;4992042;28;20077;-66
2022/09/28 02:52:36;;;;;;;7.93;4.97;;;;;;;17.28;98.91;99343.28;4988498;28;20061;-67
2022/09/28 02:55:10;;;;;;;9.27;5.05;;;;;;;17.23;98.95;99344.19;4994220;28;20034;-67
2022/09/28 02:57:54;;;;;;;10.50;5.07;;;;;;;17.11;98.11;99345.16;4994985;28;20093;-66
2022/09/28 03:00:22;;;;;;;7.43;4.93;;;;;;;16.88;98.61;99317.47;4995050;28;20034;-68
2022/09/28 03:03:45;;;;;;;8.02;4.78;;;;;;;17.01;97.15;99341.75;4995079;28;20057;-65
2022/09/28 03:06:22;;;;;;;7.18;4.57;;;;;;;16.87;98.51;99347.03;4918011;29;20028;-66
2022/09/28 03:09:11;;;;;;;7.35;4.80;;;;;;;16.85;98.45;99355.72;4917827;29;20416;-66
2022/09/28 03:11:50;;;;;;;5.28;4.78;;;;;;;16.76;97.95;99354.94;4917946;29;20079;-67
2022/09/28 03:14:16;;;;;;;7.22;5.18;;;;;;;16.66;98.65;99356.72;4917921;29;20075;-67
2022/09/28 03:16:43;;;;;;;6.78;5.22;;;;;;;16.65;99.12;99351.53;4901780;29;20415;-66
2022/09/28 03:19:13;;;;;;;7.32;5.60;;;;;;;16.71;99.50;99350.59;4917784;29;20051;-66
2022/09/28 03:21:39;;;;;;;7.97;6.05;;;;;;;16.70;99.39;99354.09;4917939;29;20934;-66
2022/09/28 03:24:04;;;;;;;6.68;5.43;;;;;;;16.72;98.30;99354.94;4917660;29;20036;-66
2022/09/28 03:26:33;;;;;;;10.15;6.00;;;;;;;16.73;98.26;99352.31;4917738;29;20522;-65
2022/09/28 03:28:58;;;;;;;8.32;6.00;;;;;;;16.65;98.66;99349.78;4933321;28;20039;-68
2022/09/28 03:31:24;;;;;;;8.02;5.95;;;;;;;16.66;97.85;99353.25;4956111;28;20529;-69
2022/09/28 03:33:55;;;;;;;17.15;6.18;;;;;;;16.58;96.92;99355.88;4956041;29;20181;-66
2022/09/28 03:36:20;;;;;;;7.95;5.20;;;;;;;16.41;96.79;99355.13;4971531;28;20129;-70
2022/09/28 03:38:46;;;;;;;6.45;5.15;;;;;;;16.33;97.66;99369.03;5016663;28;20117;-69
2022/09/28 03:41:12;;;;;;;8.88;5.38;;;;;;;16.29;99.89;99361.25;5016661;28;20037;-66
2022/09/28 03:43:37;;;;;;;7.40;4.63;;;;;;;16.26;100.00;99353.44;5016730;28;20468;-65
2022/09/28 03:46:03;;;;;;;5.45;3.95;;;;;;;16.26;100.00;99364.75;5017043;28;20452;-68
2022/09/28 03:48:34;;;;;;;4.78;3.97;;;;;;;16.25;100.00;99368.22;5014172;28;20049;-66
2022/09/28 03:51:02;;;;;;;8.40;4.07;;;;;;;15.99;100.00;99324.06;5016830;28;20040;-67
2022/09/28 03:53:31;;;;;;;5.47;3.58;;;;;;;16.22;100.00;99367.34;5016695;28;20033;-66
2022/09/28 03:56:04;;;;;;;4.30;3.75;;;;;;;15.98;99.52;99327.53;5016540;28;20087;-66
2022/09/28 03:58:30;;;;;;;5.80;4.80;;;;;;;16.26;100.00;99369.06;5016485;28;20432;-65
2022/09/28 04:01:14;;;;;;;6.85;4.45;;;;;;;16.32;100.00;99377.75;5016689;28;20029;-65
2022/09/28 04:03:40;;;;;;;7.85;4.28;;;;;;;16.29;98.66;99376.88;5016681;28;20499;-66
2022/09/28 04:06:05;;;;;;;5.68;4.20;;;;;;;15.80;98.86;99313.69;5013710;28;20026;-65
2022/09/28 04:08:32;;;;;;;6.63;4.30;;;;;;;16.23;98.42;99388.19;5013458;28;20040;-67
2022/09/28 04:10:59;;;;;;;6.88;4.72;;;;;;;15.91;99.04;99357.91;5013242;28;20037;-65
2022/09/28 04:13:25;;;;;;;48.97;24.95;;;;;;;15.78;99.47;99345.78;5013161;28;20030;-66
2022/09/28 04:15:55;;;;;;;21.25;14.98;;;;;;;16.08;99.91;99390.84;5013253;28;20456;-65
2022/09/28 04:18:21;;;;;;;11.13;9.82;;;;;;;16.06;99.83;99388.22;5013514;28;20116;-66
2022/09/28 04:20:47;;;;;;;7.82;6.85;;;;;;;16.10;99.77;99381.28;5013254;28;20037;-65
2022/09/28 04:23:14;;;;;;;7.65;5.30;;;;;;;16.11;99.47;99388.22;5013431;28;20034;-65
2022/09/28 04:25:39;;;;;;;7.18;5.35;;;;;;;16.12;99.71;99392.56;5013270;28;20036;-66
2022/09/28 04:30:49;;;;;;;7.18;5.13;;;;;;;16.12;99.30;99395.16;5012972;28;20064;-68
2022/09/28 04:33:16;;;;;;;8.27;4.85;;;;;;;16.12;98.88;99387.34;5013221;28;20116;-68
2022/09/28 04:35:41;;;;;;;7.32;4.97;;;;;;;16.10;98.84;99389.09;5012920;28;20030;-69
2022/09/28 04:38:07;;;;;;;8.25;5.07;;;;;;;16.16;99.89;99389.06;5012904;28;20030;-65
2022/09/28 04:40:32;;;;;;;8.13;5.60;;;;;;;15.89;100.00;99350.97;5012833;28;20018;-66
2022/09/28 04:42:58;;;;;;;5.45;4.60;;;;;;;16.08;100.00;99389.09;5013024;28;20386;-65
2022/09/28 04:45:26;;;;;;;9.30;5.15;;;;;;;15.96;100.00;99390.00;5012863;28;20374;-70
2022/09/28 04:47:52;;;;;;;5.37;4.60;;;;;;;16.03;100.00;99390.00;5012771;28;20058;-68
2022/09/28 04:50:20;;;;;;;6.68;5.03;;;;;;;16.11;99.20;99386.50;5012937;28;20032;-65
2022/09/28 04:52:45;;;;;;;8.50;4.93;;;;;;;16.04;98.63;99390.00;5012680;28;20026;-66
2022/09/28 04:55:14;;;;;;;13.10;5.15;;;;;;;16.03;99.04;99403.00;5012567;28;20455;-71
2022/09/28 04:57:40;;;;;;;7.80;5.20;;;;;;;15.99;99.68;99403.00;4993864;28;20516;-65
2022/09/28 05:00:07;;;;;;;8.35;5.43;;;;;;;15.64;100.00;99396.09;5012611;28;20053;-69
2022/09/28 05:02:32;;;;;;;9.48;5.43;;;;;;;15.42;100.00;99396.97;5027740;28;20070;-66
2022/09/28 05:04:58;;;;;;;7.85;6.47;;;;;;;15.31;100.00;99413.44;5012936;28;20022;-65
2022/09/28 05:07:25;;;;;;;14.32;9.45;;;;;;;14.91;100.00;99382.19;5012332;28;20030;-66
2022/09/28 05:09:50;;;;;;;15.73;10.73;;;;;;;14.93;100.00;99411.66;5012587;28;20053;-65
2022/09/28 05:12:16;;;;;;;14.40;11.50;;;;;;;15.06;100.00;99419.50;5012626;28;20038;-65
2022/09/28 05:14:41;;;;;;;16.17;11.90;;;;;;;15.25;100.00;99426.44;5027313;28;20080;-66
2022/09/28 05:17:07;;;;;;;15.43;11.48;;;;;;;15.39;100.00;99423.84;5011486;28;20026;-66
2022/09/28 05:19:33;;;;;;;17.50;12.98;;;;;;;15.62;100.00;99436.00;5012068;28;20026;-66
2022/09/28 05:22:02;;;;;;;31.60;20.83;;;;;;;15.76;100.00;99435.97;5011963;28;20053;-66
2022/09/28 05:24:28;;;;;;;122.53;109.82;;;;;;;15.81;100.00;99431.63;5011366;28;20037;-66
2022/09/28 05:26:54;;;;;;;44.70;38.47;;;;;;;15.92;100.00;99448.13;5012062;28;20034;-66
2022/09/28 05:29:19;;;;;;;34.33;30.58;;;;;;;15.88;100.00;99456.81;5011858;28;20025;-66
2022/09/28 05:31:45;;;;;;;22.73;16.85;;;;;;;15.68;100.00;99454.22;5011865;28;20026;-65
2022/09/28 05:34:10;;;;;;;17.30;12.27;;;;;;;15.77;100.00;99448.13;5011869;28;20159;-69
2022/09/28 05:36:37;;;;;;;14.38;12.18;;;;;;;15.78;100.00;99444.66;5011534;28;20030;-67
2022/09/28 05:39:03;;;;;;;9.00;7.60;;;;;;;15.65;100.00;99420.38;5011887;28;20026;-66
2022/09/28 05:41:28;;;;;;;9.10;6.97;;;;;;;16.06;100.00;99455.06;5011857;28;20463;-66
2022/09/28 05:43:54;;;;;;;7.93;6.30;;;;;;;16.22;100.00;99451.53;5011995;28;20104;-66
2022/09/28 05:46:20;;;;;;;8.15;5.78;;;;;;;16.29;100.00;99447.22;5011871;28;20424;-65
2022/09/28 05:48:46;;;;;;;10.55;6.53;;;;;;;16.22;100.00;99422.91;5011154;28;20058;-66
2022/09/28 05:51:11;;;;;;;10.90;7.03;;;;;;;16.54;100.00;99454.94;5011594;28;20537;-66
2022/09/28 05:53:37;;;;;;;18.05;13.55;;;;;;;16.47;100.00;99451.47;5011325;28;20459;-66
2022/09/28 05:56:02;;;;;;;10.65;6.88;;;;;;;16.55;100.00;99454.03;5008943;28;20045;-68
2022/09/28 05:58:28;;;;;;;10.63;8.20;;;;;;;16.74;100.00;99470.50;5011335;28;20472;-65
2022/09/28 06:00:57;;;;;;;10.52;6.85;;;;;;;16.61;100.00;99467.06;5011140;28;20471;-67
2022/09/28 06:03:23;;;;;;;8.35;6.68;;;;;;;16.26;100.00;99437.66;5011033;28;20037;-65
2022/09/28 06:05:49;;;;;;;6.72;6.03;;;;;;;16.49;100.00;99465.38;5010908;28;20029;-64
2022/09/28 06:08:14;;;;;;;13.48;6.97;;;;;;;16.68;100.00;99460.94;5009005;28;20076;-65
2022/09/28 06:10:40;;;;;;;8.60;6.72;;;;;;;16.93;100.00;99476.50;5005237;28;20029;-66
2022/09/28 06:13:06;;;;;;;7.28;6.35;;;;;;;17.17;100.00;99470.31;5010765;28;20448;-66
2022/09/28 06:15:34;;;;;;;7.00;6.28;;;;;;;17.21;100.00;99461.59;5007882;28;20037;-69
2022/09/28 06:18:05;;;;;;;7.80;6.20;;;;;;;17.36;100.00;99465.81;5010358;28;20484;-65
2022/09/28 06:20:33;;;;;;;10.68;6.30;;;;;;;17.53;100.00;99457.84;5010459;28;20057;-71
2022/09/28 06:22:59;;;;;;;8.93;6.13;;;;;;;17.56;100.00;99434.34;5009899;28;20049;-66
2022/09/28 06:25:26;;;;;;;8.35;6.88;;;;;;;17.95;100.00;99465.38;5010691;28;20374;-66
2022/09/28 06:28:13;;;;;;;8.25;6.78;;;;;;;18.18;100.00;99457.31;5010243;28;20057;-66
2022/09/28 06:30:39;;;;;;;8.18;6.45;;;;;;;18.39;100.00;99452.72;5007072;28;20018;-66
2022/09/28 06:33:07;;;;;;;9.75;6.35;;;;;;;18.50;100.00;99458.69;5010202;28;20022;-67
2022/09/28 06:35:33;;;;;;;12.32;8.10;;;;;;;18.64;100.00;99465.50;5010572;28;20018;-69
2022/09/28 06:37:59;;;;;;;8.35;7.25;;;;;;;18.54;100.00;99436.88;5010312;28;20113;-65
2022/09/28 06:40:26;;;;;;;9.82;6.97;;;;;;;18.65;100.00;99438.47;5010432;28;20056;-65
2022/09/28 06:43:14;;;;;;;10.35;6.88;;;;;;;19.04;100.00;99471.13;5010635;28;20033;-66
2022/09/28 06:45:40;;;;;;;7.28;6.18;;;;;;;19.19;100.00;99470.03;5010489;28;20030;-65
2022/09/28 06:48:07;;;;;;;8.10;7.30;;;;;;;19.33;100.00;99480.31;5009030;28;20077;-69
2022/09/28 06:50:38;;;;;;;13.25;6.47;;;;;;;19.40;100.00;99483.66;5010493;28;20048;-65
2022/09/28 06:53:06;;;;;;;9.35;6.75;;;;;;;19.11;100.00;99484.97;5009477;28;20124;-68
2022/09/28 06:55:32;;;;;;;8.52;6.20;;;;;;;19.03;100.00;99486.84;5010687;28;20488;-65
2022/09/28 06:58:03;;;;;;;7.13;5.75;;;;;;;19.19;100.00;99482.25;5009709;28;20044;-64
2022/09/28 07:00:31;;;;;;;7.60;5.63;;;;;;;19.05;100.00;99493.78;5010815;28;20026;-65
2022/09/28 07:02:57;;;;;;;7.63;5.25;;;;;;;19.15;100.00;99488.41;5009271;28;20117;-64
2022/09/28 07:05:26;;;;;;;6.88;6.00;;;;;;;19.11;100.00;99482.34;5010522;28;20104;-65
2022/09/28 07:07:57;;;;;;;6.80;5.72;;;;;;;19.12;100.00;99483.25;5010430;28;20022;-64
2022/09/28 07:10:26;;;;;;;9.45;5.53;;;;;;;19.22;100.00;99485.69;5010302;28;20518;-64
2022/09/28 07:12:52;;;;;;;9.63;4.77;;;;;;;19.24;100.00;99481.31;5010644;28;20026;-65
2022/09/28 07:15:19;;;;;;;7.88;4.25;;;;;;;19.50;100.00;99485.28;5010504;28;20779;-69
2022/09/28 07:17:45;;;;;;;6.65;4.53;;;;;;;19.80;100.00;99475.19;5010505;28;20065;-65
2022/09/28 07:20:11;;;;;;;5.25;3.78;;;;;;;19.83;100.00;99451.59;5010356;28;20105;-65
2022/09/28 07:22:37;;;;;;;6.80;4.20;;;;;;;20.04;100.00;99470.47;5010270;28;20064;-65
2022/09/28 07:25:04;;;;;;;6.05;3.92;;;;;;;20.11;100.00;99471.19;5010392;28;20077;-65
2022/09/28 07:27:30;;;;;;;9.18;4.25;;;;;;;20.07;100.00;99480.00;5010543;28;20041;-64
2022/09/28 07:29:55;;;;;;;8.85;4.80;;;;;;;20.35;100.00;99480.38;5010383;28;20575;-64
2022/09/28 07:32:21;;;;;;;5.50;4.80;;;;;;;20.49;100.00;99485.34;5010175;28;20041;-64
2022/09/28 07:34:47;;;;;;;7.55;4.57;;;;;;;20.71;99.96;99477.94;5010173;28;20026;-68
2022/09/28 07:37:32;;;;;;;5.57;4.30;;;;;;;20.87;100.00;99475.00;5067228;28;20036;-65
2022/09/28 07:42:41;;;;;;;5.80;4.07;;;;;;;21.12;96.57;99433.31;5071376;28;20046;-65
2022/09/28 07:45:08;;;;;;;5.65;3.83;;;;;;;21.53;94.26;99478.72;5071177;28;20028;-65
2022/09/28 07:47:33;;;;;;;6.38;3.85;;;;;;;21.68;93.50;99479.31;5070749;28;20098;-64
2022/09/28 07:49:59;;;;;;;7.10;3.63;;;;;;;21.41;92.16;99444.88;5070949;28;20032;-65
2022/09/28 07:52:25;;;;;;;5.25;3.60;;;;;;;21.60;93.13;99461.09;5070740;28;20050;-65
2022/09/28 07:54:56;;;;;;;6.18;3.90;;;;;;;21.69;91.39;99471.38;5070921;28;20070;-64
2022/09/28 07:57:23;;;;;;;6.43;3.83;;;;;;;21.78;91.02;99467.66;5070899;28;20114;-65
2022/09/28 07:59:49;;;;;;;5.13;3.33;;;;;;;21.74;92.09;99461.59;5071008;28;20025;-64
2022/09/28 08:02:19;;;;;;;4.30;3.10;;;;;;;21.54;91.52;99434.97;5070751;28;20035;-65
2022/09/28 08:04:49;;;;;;;5.13;3.83;;;;;;;21.93;89.67;99462.03;5070816;28;20067;-67
2022/09/28 08:07:16;;;;;;;5.30;3.10;;;;;;;22.03;89.18;99460.03;5070878;28;20032;-65
2022/09/28 08:09:42;;;;;;;5.95;3.55;;;;;;;22.17;88.71;99458.75;5014318;28;20038;-65
2022/09/28 08:12:09;;;;;;;6.30;3.10;;;;;;;22.21;87.30;99431.50;5013526;28;20030;-64
2022/09/28 08:14:34;;;;;;;6.20;3.05;;;;;;;22.39;86.38;99428.41;5013254;28;20022;-65
2022/09/28 08:17:00;;;;;;;4.32;3.22;;;;;;;22.53;85.04;99463.94;5013612;28;20026;-65
2022/09/28 08:21:43;;;;;;;5.25;3.00;;;;;;;22.56;87.16;99467.34;5013284;28;20062;-69
2022/09/28 08:22:12;;;;;;;8.32;3.05;;;;;;;22.51;85.88;99477.13;5013149;28;20038;-64
2022/09/28 08:24:38;;;;;;;5.10;3.20;;;;;;;22.45;86.94;99470.31;5013231;28;20026;-65
2022/09/28 08:27:03;;;;;;;5.63;3.10;;;;;;;22.18;87.31;99434.22;5013042;28;20056;-64
2022/09/28 08:29:30;;;;;;;5.00;3.22;;;;;;;22.70;83.54;99474.84;5043957;28;20034;-67
2022/09/28 08:31:58;;;;;;;5.28;3.13;;;;;;;23.00;81.52;99484.50;5012721;28;20042;-66
2022/09/28 08:34:24;;;;;;;4.65;3.10;;;;;;;23.17;81.01;99477.00;5012891;28;20022;-65
2022/09/28 08:36:49;;;;;;;5.57;3.10;;;;;;;23.03;81.38;99451.06;5013231;28;20092;-65
2022/09/28 08:39:15;;;;;;;4.68;2.70;;;;;;;23.26;82.04;99473.22;5012865;28;20033;-65
2022/09/28 08:41:54;;;;;;;5.47;3.08;;;;;;;23.26;80.92;99471.44;5013144;28;20473;-66
2022/09/28 08:44:25;;;;;;;5.40;2.95;;;;;;;23.04;81.91;99476.47;5012893;28;20105;-65
2022/09/28 08:46:57;;;;;;;4.45;3.20;;;;;;;23.14;83.35;99471.81;5012689;28;20046;-66
2022/09/28 08:49:29;;;;;;;5.25;2.78;;;;;;;23.38;80.72;99467.56;5012904;28;20042;-64
2022/09/28 08:52:19;;;;;;;7.38;3.08;;;;;;;23.69;79.06;99460.41;5012298;28;20087;-69
2022/09/28 08:54:47;;;;;;;7.03;3.05;;;;;;;23.86;78.64;99444.03;5012404;28;20112;-65
2022/09/28 08:57:21;;;;;;;3.80;2.85;;;;;;;23.92;79.57;99457.03;5012817;28;20033;-68
2022/09/28 08:59:50;;;;;;;3.42;2.60;;;;;;;23.73;79.64;99462.03;5012469;28;20037;-65
2022/09/28 09:02:22;;;;;;;4.25;2.95;;;;;;;23.88;78.82;99458.03;5012565;28;20037;-66
2022/09/28 09:04:50;;;;;;;4.07;2.80;;;;;;;23.96;77.62;99458.63;5012674;28;20199;-65
2022/09/28 09:07:36;;;;;;;5.43;2.90;;;;;;;23.55;78.68;99460.88;5011539;28;20030;-66
2022/09/28 09:10:19;;;;;;;3.95;3.03;;;;;;;23.69;78.66;99458.66;5010548;28;20083;-67
2022/09/28 09:13:11;;;;;;;7.70;2.97;;;;;;;24.00;77.50;99460.28;5010358;28;20492;-68
2022/09/28 09:16:11;;;;;;;6.47;3.00;;;;;;;24.16;76.55;99451.81;4966276;28;20557;-65
2022/09/28 09:18:48;;;;;;;7.35;2.70;;;;;;;24.45;75.54;99452.53;4893788;29;20127;-69
2022/09/28 09:21:26;;;;;;;6.78;3.15;;;;;;;24.49;76.07;99448.88;4893062;29;20132;-68
2022/09/28 09:24:02;;;;;;;4.78;3.00;;;;;;;24.28;76.02;99445.25;4890378;29;20070;-66
2022/09/28 09:26:35;;;;;;;4.18;2.90;;;;;;;24.39;75.47;99438.66;4893121;29;20040;-66
2022/09/28 09:29:03;;;;;;;6.35;2.97;;;;;;;24.57;75.64;99443.31;4889819;29;20104;-65
2022/09/28 09:31:48;;;;;;;6.65;2.90;;;;;;;24.79;75.67;99441.63;4893023;29;20040;-66
2022/09/28 09:34:45;;;;;;;4.72;3.00;;;;;;;24.84;73.59;99442.28;4891694;29;20050;-66
2022/09/28 09:37:45;;;;;;;4.20;2.90;;;;;;;25.10;71.87;99431.66;4892923;29;20055;-65
2022/09/28 09:40:31;;;;;;;3.17;2.55;;;;;;;25.20;70.30;99444.41;4892776;29;20043;-65
2022/09/28 09:43:44;;;;;;;8.65;2.50;;;;;;;25.56;68.71;99436.84;4892800;29;20641;-66
2022/09/28 09:46:31;;;;;;;3.33;2.40;;;;;;;25.71;68.27;99430.94;4872826;29;20484;-67
2022/09/28 09:49:09;;;;;;;4.30;2.50;;;;;;;25.73;68.62;99407.06;4872467;29;20061;-66
2022/09/28 09:52:13;;;;;;;3.65;2.72;;;;;;;25.73;69.98;99430.88;4881105;29;20036;-66
2022/09/28 09:54:47;;;;;;;3.33;2.58;;;;;;;25.75;71.94;99423.75;4894154;29;20091;-66
2022/09/28 09:57:29;;;;;;;4.47;2.65;;;;;;;25.43;69.78;99428.59;4910209;29;20660;-66
2022/09/28 10:00:00;;;;;;;4.90;2.78;;;;;;;25.50;68.02;99422.97;4910110;29;20036;-63
2022/09/28 10:02:26;;;;;;;2.92;2.40;;;;;;;25.65;68.61;99402.13;4910354;29;20119;-66
2022/09/28 10:04:57;;;;;;;4.22;1.98;;;;;;;25.73;63.56;99423.78;4910628;29;20127;-65
2022/09/28 10:07:28;;;;;;;4.05;3.10;;;;;;;25.78;64.19;99383.94;4911380;29;20033;-65
2022/09/28 10:09:57;;;;;;;5.78;2.70;;;;;;;25.94;63.39;99413.22;4910383;29;20066;-67
2022/09/28 10:12:23;;;;;;;3.00;1.83;;;;;;;26.29;59.30;99413.47;4909612;29;20054;-66
2022/09/28 10:14:49;;;;;;;5.50;2.25;;;;;;;26.38;59.48;99406.91;4911497;29;20044;-63
2022/09/28 10:17:18;;;;;;;3.15;1.88;;;;;;;26.69;58.40;99411.63;4910980;29;20126;-65
2022/09/28 10:19:44;;;;;;;5.75;2.10;;;;;;;26.91;59.81;99422.09;4910902;29;20048;-63
2022/09/28 10:22:15;;;;;;;2.78;2.20;;;;;;;27.05;61.97;99410.00;4945117;28;20042;-63
2022/09/28 10:24:44;;;;;;;3.53;2.20;;;;;;;27.23;59.42;99417.03;4987595;28;20038;-63
2022/09/28 10:27:15;;;;;;;3.85;2.13;;;;;;;27.23;59.24;99385.25;4986853;28;20457;-66
2022/09/28 10:29:54;;;;;;;4.85;2.30;;;;;;;27.49;58.04;99406.97;4939143;28;20560;-65
2022/09/28 10:32:35;;;;;;;5.05;1.60;;;;;;;27.52;56.10;99398.84;5009789;28;20030;-64
2022/09/28 10:35:22;;;;;;;4.50;1.80;;;;;;;27.40;52.51;99407.41;5006359;28;20101;-66
2022/09/28 10:38:03;;;;;;;3.33;1.70;;;;;;;27.16;53.85;99405.03;5008109;28;20026;-63
2022/09/28 10:40:50;;;;;;;3.80;2.10;;;;;;;27.43;52.67;99386.09;5009682;28;20116;-63
2022/09/28 10:43:38;;;;;;;1.67;1.50;;;;;;;27.40;49.55;99379.16;5009117;28;20480;-67
2022/09/28 10:46:18;;;;;;;3.72;2.00;;;;;;;27.23;43.20;99392.34;5008073;28;20033;-68
2022/09/28 10:48:50;;;;;;;3.78;1.60;;;;;;;27.23;41.40;99332.25;5007677;28;20513;-62
2022/09/28 10:51:16;;;;;;;10.27;6.72;;;;;;;27.34;39.71;99394.44;5009293;28;20026;-61
2022/09/28 10:53:58;;;;;;;5.82;2.80;;;;;;;27.56;41.37;99381.84;5009675;28;20071;-63
2022/09/28 10:56:28;;;;;;;5.65;1.90;;;;;;;27.59;41.05;99375.53;5007452;28;20481;-62
2022/09/28 10:58:54;;;;;;;4.30;1.40;;;;;;;27.61;41.13;99347.16;5009546;28;20060;-60
2022/09/28 11:01:25;;;;;;;3.92;1.60;;;;;;;28.07;38.86;99370.44;5008373;28;20080;-62
2022/09/28 11:03:55;;;;;;;2.05;1.30;;;;;;;28.29;39.12;99367.50;5008161;28;20032;-62
2022/09/28 11:06:38;;;;;;;2.45;1.50;;;;;;;28.33;38.35;99370.84;5006351;28;20069;-65
2022/09/28 11:09:27;;;;;;;1.88;1.20;;;;;;;28.44;36.01;99355.19;5007269;28;20114;-64
2022/09/28 11:11:53;;;;;;;;;;;;;;;28.48;35.54;99355.88;5008929;28;20030;-69
2022/09/28 11:14:35;;;;;;;3.22;1.20;;;;;;;28.64;35.68;99347.91;5009381;28;19924;-62
2022/09/28 11:17:26;;;;;;;2.80;1.38;;;;;;;28.65;36.21;99345.16;5011221;28;20496;-64
2022/09/28 11:19:52;;;;;;;5.18;1.40;;;;;;;28.67;35.05;99337.97;5013621;28;20492;-65
2022/09/28 11:22:30;;;;;;;4.10;1.30;;;;;;;28.88;35.11;99335.91;5013890;28;20029;-64
2022/09/28 11:25:21;;;;;;;3.25;1.20;;;;;;;28.81;33.66;99339.88;5013718;28;20507;-63
2022/09/28 11:27:49;;;;;;;3.28;1.30;;;;;;;28.99;35.67;99345.06;5013807;28;20022;-63
2022/09/28 11:30:48;;;;;;;3.03;1.20;;;;;;;28.51;36.53;99345.94;5013346;28;20026;-63
2022/09/28 11:33:19;;;;;;;;;;;;;;;28.80;36.99;99332.84;5003231;28;20497;-63
2022/09/28 11:36:19;;;;;;;2.75;1.45;;;;;;;28.51;34.69;99330.00;5013763;28;19913;-64
2022/09/28 11:39:00;;;;;;;2.20;1.20;;;;;;;28.25;35.35;99332.28;5002890;28;20120;-63
2022/09/28 11:41:43;;;;;;;1.92;1.10;;;;;;;28.00;35.55;99330.09;5013002;28;20112;-64
2022/09/28 11:44:29;;;;;;;1.98;1.38;;;;;;;28.06;35.15;99323.63;5061160;28;20504;-62
2022/09/28 11:47:25;;;;;;;3.33;1.40;;;;;;;28.55;35.09;99318.25;5013197;28;20049;-64
2022/09/28 11:50:04;;;;;;;4.50;1.27;;;;;;;28.47;34.88;99320.47;5012861;28;20089;-69
2022/09/28 11:52:43;;;;;;;1.10;0.90;;;;;;;28.06;33.72;99320.97;5013318;28;20025;-65
2022/09/28 11:55:23;;;;;;;2.70;1.00;;;;;;;28.16;33.65;99306.25;5013379;28;20054;-70
2022/09/28 11:57:55;;;;;;;5.85;1.33;;;;;;;28.17;33.96;99313.28;5013290;28;20029;-63